Chem Venus — D5NX4 — position and weather

sailwx.info

Track history (hours):
 
Tides and Currents Weather Stations Pressure Air Temp Water Temp Dewpoint Dewpoint Depression Visibility Wind Speed Wind Dir Waves Ship Positions

Chem Venus

Last reported at 2018-Feb-16 15:04 UTC. Time now 2018-Feb-22 13:10 UTC.
Position N 49°04' W 005°53'.

Length 145 m; draft 9.8 m.

Type: Ship (hazmat cat B). MMSI: 636018039.

Date/timePositionNaut miles runAvg speedWind from/ knotsBaromVisibWave heightAir tempDewpointWater temp
2018-Feb-16 15:04N 49°04' W 005°53'810.7
2018-Feb-16 14:19N 49°10' W 005°43'1311.3
2018-Feb-16 13:10N 49°18' W 005°29'7212.1
2018-Feb-16 07:14N 49°48' W 003°48'510.7
2018-Feb-16 06:46N 49°50' W 003°41'310.6
2018-Feb-16 06:30N 49°51' W 003°37'510.7
2018-Feb-16 06:00N 49°53' W 003°29'510.9
2018-Feb-16 05:30N 49°55' W 003°21'611.4
2018-Feb-16 05:00N 49°56' W 003°12'611.8
2018-Feb-16 04:30N 49°58' W 003°03'612.6
2018-Feb-16 04:01N 49°60' W 002°54'713.3
2018-Feb-16 03:30N 50°02' W 002°44'714.2
2018-Feb-16 03:00N 50°04' W 002°34'2415.4
2018-Feb-16 01:27N 50°10' W 001°57'715.3
2018-Feb-16 01:00N 50°12' W 001°47'714.7
2018-Feb-16 00:30N 50°14' W 001°36'713.9
2018-Feb-16 00:00N 50°16' W 001°26'713.2
2018-Feb-15 23:30N 50°18' W 001°16'2011.0
2018-Feb-15 21:39N 50°23' W 000°45'1 9.8
2018-Feb-15 21:30N 50°24' W 000°43'5 9.8
2018-Feb-15 20:58N 50°25' W 000°35'510.0
2018-Feb-15 20:30N 50°26' W 000°28'510.2
2018-Feb-15 20:00N 50°27' W 000°20'510.8
2018-Feb-15 19:30N 50°28' W 000°12'611.6
2018-Feb-15 19:00N 50°30' W 000°03'612.0
2018-Feb-15 18:30N 50°32' E 000°06'612.3
2018-Feb-15 18:00N 50°34' E 000°15'612.9
2018-Feb-15 17:30N 50°35' E 000°25'713.4
2018-Feb-15 17:00N 50°37' E 000°35'713.6
2018-Feb-15 16:30N 50°41' E 000°43'713.5
2018-Feb-15 16:00N 50°46' E 000°51'713.0
2018-Feb-15 15:30N 50°50' E 000°59'612.6
2018-Feb-15 15:00N 50°54' E 001°07'612.2
2018-Feb-15 14:31N 50°58' E 001°15'611.3
2018-Feb-15 14:00N 51°01' E 001°22'510.6
2018-Feb-15 13:30N 51°05' E 001°28'5 9.7
2018-Feb-15 13:00N 51°08' E 001°34'5 9.2
2018-Feb-15 12:30N 51°11' E 001°40'5 9.9
2018-Feb-15 12:00N 51°14' E 001°46'510.2
2018-Feb-15 11:30N 51°18' E 001°50'611.1
2018-Feb-15 11:00N 51°23' E 001°55'510.7
2018-Feb-15 10:30N 51°24' E 002°04'612.3
2018-Feb-15 10:00N 51°22' E 002°12'611.7
2018-Feb-15 09:30N 51°21' E 002°22'612.4
2018-Feb-15 08:59N 51°23' E 002°32'611.5
2018-Feb-15 08:28N 51°22' E 002°41'511.0
2018-Feb-15 08:00N 51°22' E 002°50'713.4
2018-Feb-15 07:30N 51°24' E 003°00'612.8
2018-Feb-15 07:00N 51°24' E 003°10'714.0
2018-Feb-15 06:30N 51°25' E 003°21'714.0
2018-Feb-15 06:00N 51°26' E 003°32'611.7
2018-Feb-15 05:30N 51°26' E 003°42'713.3
2018-Feb-15 05:00N 51°21' E 003°49'713.2
2018-Feb-15 04:31N 51°25' E 003°58'4 8.6
2018-Feb-15 04:00N 51°23' E 004°03'611.4
2018-Feb-15 03:30N 51°24' E 004°12'4 8.5
2018-Feb-15 03:00N 51°21' E 004°17'0 0.2
2018-Feb-15 02:31N 51°21' E 004°17'0 0.0
2018-Feb-15 02:01N 51°21' E 004°17'1 1.4
2018-Feb-15 01:30N 51°20' E 004°18'3 5.8
2018-Feb-15 01:00N 51°18' E 004°20'3 5.0
2018-Feb-15 00:30N 51°15' E 004°21'0 0.6
2018-Feb-15 00:00N 51°15' E 004°22'0 0.0
2018-Feb-14 23:30N 51°15' E 004°22'0 0.0
2018-Feb-14 23:00N 51°15' E 004°22'0 0.0
2018-Feb-14 22:30N 51°15' E 004°22'0 0.0
2018-Feb-14 22:00N 51°15' E 004°22'0 0.0
2018-Feb-14 21:30N 51°15' E 004°22'0 0.0
2018-Feb-14 21:00N 51°15' E 004°22'0 0.0
2018-Feb-14 20:30N 51°15' E 004°22'0 0.0
2018-Feb-14 20:00N 51°15' E 004°22'0 0.0
2018-Feb-14 19:30N 51°15' E 004°22'0 0.0
2018-Feb-14 19:00N 51°15' E 004°22'0 0.0
2018-Feb-14 18:30N 51°15' E 004°22'0 0.0
2018-Feb-14 18:00N 51°15' E 004°22'0 0.0
2018-Feb-14 17:30N 51°15' E 004°22'0 0.0
2018-Feb-14 17:00N 51°15' E 004°22'0 0.0
2018-Feb-14 16:30N 51°15' E 004°22'0 0.0
2018-Feb-14 16:00N 51°15' E 004°22'0 0.0
2018-Feb-14 15:30N 51°15' E 004°22'0 0.0
2018-Feb-14 15:00N 51°15' E 004°22'0 0.0
2018-Feb-14 14:30N 51°15' E 004°22'0 0.0
2018-Feb-14 14:00N 51°15' E 004°22'0 0.0
2018-Feb-14 13:30N 51°15' E 004°22'0 0.0
2018-Feb-14 13:00N 51°15' E 004°22'0 0.0
2018-Feb-14 12:30N 51°15' E 004°22'0 0.0
2018-Feb-14 12:00N 51°15' E 004°22'0 0.0
2018-Feb-14 11:30N 51°15' E 004°22'0 0.0
2018-Feb-14 11:00N 51°15' E 004°22'0 0.0
2018-Feb-14 10:30N 51°15' E 004°22'0 0.0
2018-Feb-14 10:00N 51°15' E 004°22'0 0.0
2018-Feb-14 09:30N 51°15' E 004°22'0 0.0
2018-Feb-14 09:00N 51°15' E 004°22'0 0.0
2018-Feb-14 08:30N 51°15' E 004°22'0 0.0
2018-Feb-14 08:00N 51°15' E 004°22'0 0.0
2018-Feb-14 07:30N 51°15' E 004°22'0 0.0
2018-Feb-14 07:00N 51°15' E 004°22'0 0.0
2018-Feb-14 06:30N 51°15' E 004°22'0 0.0
2018-Feb-14 06:00N 51°15' E 004°22'0 0.0
2018-Feb-14 05:30N 51°15' E 004°22'0 0.0
2018-Feb-14 04:57N 51°15' E 004°22'0 0.0
2018-Feb-14 04:30N 51°15' E 004°22'0 0.0
2018-Feb-14 04:00N 51°15' E 004°22'0 0.0
2018-Feb-14 03:30N 51°15' E 004°22'0 0.0
2018-Feb-14 03:00N 51°15' E 004°22'0 0.0
2018-Feb-14 02:30N 51°15' E 004°22'0 0.0
2018-Feb-14 02:00N 51°15' E 004°22'0 0.0
2018-Feb-14 01:27N 51°15' E 004°22'0 0.0
2018-Feb-14 01:00N 51°15' E 004°22'0 0.0
2018-Feb-14 00:30N 51°15' E 004°22'0 0.0
2018-Feb-14 00:00N 51°15' E 004°22'0 0.0
2018-Feb-13 23:30N 51°15' E 004°22'0 0.0
2018-Feb-13 23:00N 51°15' E 004°22'0 0.0
2018-Feb-13 22:30N 51°15' E 004°22'0 0.0
2018-Feb-13 22:00N 51°15' E 004°22'0 0.0
2018-Feb-13 21:30N 51°15' E 004°22'0 0.0
2018-Feb-13 21:00N 51°15' E 004°22'0 0.0
2018-Feb-13 20:30N 51°15' E 004°22'0 0.0
2018-Feb-13 20:00N 51°15' E 004°22'0 0.0
2018-Feb-13 19:30N 51°15' E 004°22'0 0.0
2018-Feb-13 19:00N 51°15' E 004°22'0 0.0
2018-Feb-13 18:30N 51°15' E 004°22'0 0.0
2018-Feb-13 18:00N 51°15' E 004°22'0 0.0
2018-Feb-13 17:30N 51°15' E 004°22'0 0.0
2018-Feb-13 17:00N 51°15' E 004°22'0 0.0
2018-Feb-13 16:30N 51°15' E 004°22'0 0.0
2018-Feb-13 16:00N 51°15' E 004°22'0 0.0
2018-Feb-13 15:30N 51°15' E 004°22'0 0.0
2018-Feb-13 15:00N 51°15' E 004°22'0 0.0
2018-Feb-13 14:30N 51°15' E 004°22'0 0.0
2018-Feb-13 14:00N 51°15' E 004°22'0 0.0
2018-Feb-13 13:30N 51°15' E 004°22'0 0.0
2018-Feb-13 12:57N 51°15' E 004°22'0 0.0
2018-Feb-13 12:30N 51°15' E 004°22'0 0.0
2018-Feb-13 12:00N 51°15' E 004°22'0 0.0
2018-Feb-13 11:30N 51°15' E 004°22'0 0.0
2018-Feb-13 11:00N 51°15' E 004°22'0 0.0
2018-Feb-13 10:30N 51°15' E 004°22'0 0.0
2018-Feb-13 10:00N 51°15' E 004°22'0 0.0
2018-Feb-13 09:30N 51°15' E 004°22'0 0.0
2018-Feb-13 09:00N 51°15' E 004°22'0 0.0
2018-Feb-13 08:24N 51°15' E 004°22'0 0.0
2018-Feb-13 08:00N 51°15' E 004°22'0 0.0
2018-Feb-13 07:30N 51°15' E 004°22'0 0.0
2018-Feb-13 07:00N 51°15' E 004°22'0 0.0
2018-Feb-13 06:30N 51°15' E 004°22'0 0.0
2018-Feb-13 06:00N 51°15' E 004°22'0 0.0
2018-Feb-13 05:30N 51°15' E 004°22'0 0.1
2018-Feb-13 05:00N 51°15' E 004°22'2 3.6
2018-Feb-13 04:31N 51°17' E 004°20'0 0.0
2018-Feb-13 04:00N 51°17' E 004°20'0 1.0
2018-Feb-13 03:30N 51°17' E 004°19'3 5.1
2018-Feb-13 03:00N 51°15' E 004°21'3 5.5
2018-Feb-13 02:30N 51°12' E 004°20'5 9.1
2018-Feb-13 02:00N 51°07' E 004°18'0 0.9
2018-Feb-13 01:29N 51°07' E 004°18'1 1.8
2018-Feb-13 01:00N 51°06' E 004°19'2 0.1
2018-Feb-12 02:53N 51°05' E 004°21'0 1.0
2018-Feb-12 02:30N 51°06' E 004°20'2 3.1
2018-Feb-12 01:59N 51°06' E 004°18'1 1.4
2018-Feb-12 01:30N 51°07' E 004°18'1 1.4
2018-Feb-12 01:00N 51°08' E 004°19'3 5.8
2018-Feb-12 00:30N 51°10' E 004°20'5 9.0
2018-Feb-12 00:00N 51°14' E 004°24'4 7.9
2018-Feb-11 23:30N 51°17' E 004°19'4 8.9
2018-Feb-11 23:00N 51°21' E 004°16'1 1.3
2018-Feb-11 22:30N 51°21' E 004°17'0 0.2
2018-Feb-11 21:59N 51°21' E 004°17'2 4.1
2018-Feb-11 21:29N 51°19' E 004°19'0 0.0
2018-Feb-11 20:59N 51°19' E 004°19'0 0.0
2018-Feb-11 20:29N 51°19' E 004°19'0 0.0
2018-Feb-11 19:59N 51°19' E 004°19'0 0.0
2018-Feb-11 19:26N 51°19' E 004°19'0 0.0
2018-Feb-11 18:56N 51°19' E 004°19'0 0.0
2018-Feb-11 18:29N 51°19' E 004°19'0 0.0
2018-Feb-11 17:59N 51°19' E 004°19'0 0.0
2018-Feb-11 17:29N 51°19' E 004°19'0 0.0
2018-Feb-11 16:59N 51°19' E 004°19'0 0.0
2018-Feb-11 16:26N 51°19' E 004°19'0 0.0
2018-Feb-11 15:59N 51°19' E 004°19'0 0.0
2018-Feb-11 15:29N 51°19' E 004°19'0 0.0
2018-Feb-11 14:59N 51°19' E 004°19'0 0.0
2018-Feb-11 14:29N 51°19' E 004°19'0 0.0
2018-Feb-11 13:56N 51°19' E 004°19'0 0.0
2018-Feb-11 13:30N 51°19' E 004°19'0 0.0
2018-Feb-11 05:56N 51°19' E 004°18'0 0.0
2018-Feb-11 05:23N 51°19' E 004°18'0 0.0
2018-Feb-11 04:59N 51°19' E 004°18'0 0.0
2018-Feb-11 03:53N 51°19' E 004°18'0 0.0
2018-Feb-10 23:41N 51°19' E 004°18'0 0.0
2018-Feb-10 21:32N 51°19' E 004°18'0 0.0
2018-Feb-10 21:11N 51°19' E 004°18'0 0.0
2018-Feb-10 20:56N 51°19' E 004°18'0 0.0
2018-Feb-10 20:26N 51°19' E 004°18'0 0.0
2018-Feb-10 19:59N 51°19' E 004°18'0 0.0
2018-Feb-10 19:11N 51°19' E 004°18'0 0.0
2018-Feb-10 18:59N 51°19' E 004°18'0 0.0
2018-Feb-10 18:29N 51°19' E 004°18'0 0.4
2018-Feb-10 18:01N 51°19' E 004°19'0 0.0
2018-Feb-10 17:30N 51°19' E 004°19'0 0.0
2018-Feb-10 17:00N 51°19' E 004°19'0 0.0
2018-Feb-10 16:31N 51°19' E 004°19'0 0.0
2018-Feb-10 16:00N 51°19' E 004°19'0 0.0
2018-Feb-10 15:24N 51°19' E 004°19'0 0.0
2018-Feb-10 14:57N 51°19' E 004°19'0 0.0
2018-Feb-10 14:31N 51°19' E 004°19'0 0.0
2018-Feb-10 14:00N 51°19' E 004°19'0 0.0
2018-Feb-10 13:28N 51°19' E 004°19'0 0.0
2018-Feb-10 13:00N 51°19' E 004°19'0 0.0
2018-Feb-10 12:27N 51°19' E 004°19'0 0.0
2018-Feb-10 12:01N 51°19' E 004°19'0 0.0
2018-Feb-10 11:27N 51°19' E 004°19'0 0.0
2018-Feb-10 11:00N 51°19' E 004°19'0 0.0
2018-Feb-10 10:31N 51°19' E 004°19'0 0.0
2018-Feb-10 09:57N 51°19' E 004°19'0 0.0
2018-Feb-10 09:31N 51°19' E 004°19'0 0.0
2018-Feb-10 08:58N 51°19' E 004°19'0 0.0
2018-Feb-10 08:31N 51°19' E 004°19'0 0.0
2018-Feb-10 08:01N 51°19' E 004°19'0 0.0
2018-Feb-10 07:30N 51°19' E 004°19'0 0.0
2018-Feb-10 07:00N 51°19' E 004°19'0 0.0
2018-Feb-10 06:27N 51°19' E 004°19'0 0.0
2018-Feb-10 06:01N 51°19' E 004°19'0 0.0
2018-Feb-10 05:30N 51°19' E 004°19'0 0.0
2018-Feb-10 05:01N 51°19' E 004°19'0 0.0
2018-Feb-10 04:30N 51°19' E 004°19'0 0.0
2018-Feb-10 04:00N 51°19' E 004°19'0 0.0
2018-Feb-10 03:30N 51°19' E 004°19'0 0.0
2018-Feb-10 03:00N 51°19' E 004°19'0 0.0
2018-Feb-10 02:31N 51°19' E 004°19'0 0.0
2018-Feb-10 01:58N 51°19' E 004°19'0 0.0
2018-Feb-10 01:28N 51°19' E 004°19'0 0.0
2018-Feb-10 01:01N 51°19' E 004°19'0 0.0
2018-Feb-10 00:31N 51°19' E 004°19'0 0.0
2018-Feb-10 00:01N 51°19' E 004°19'0 0.0
2018-Feb-09 23:30N 51°19' E 004°19'0 0.0
2018-Feb-09 23:00N 51°19' E 004°19'0 0.0
2018-Feb-09 22:45N 51°19' E 004°19'0 0.0
2018-Feb-09 22:01N 51°19' E 004°19'0 0.0
2018-Feb-09 20:30N 51°19' E 004°19'0 0.0
2018-Feb-09 20:00N 51°19' E 004°19'0 0.0
2018-Feb-09 18:31N 51°19' E 004°19'0 0.0
2018-Feb-09 17:31N 51°19' E 004°19'0 0.0
2018-Feb-09 17:00N 51°19' E 004°19'0 0.0
2018-Feb-09 15:31N 51°19' E 004°19'0 0.0
2018-Feb-09 13:30N 51°19' E 004°19'0 0.0
2018-Feb-09 13:01N 51°19' E 004°19'0 0.0
2018-Feb-09 12:31N 51°19' E 004°19'1 1.4
2018-Feb-09 11:30N 51°18' E 004°20'3 5.5
2018-Feb-09 11:00N 51°15' E 004°22'0 0.0
2018-Feb-08 16:00N 51°15' E 004°22'0 0.9
2018-Feb-08 15:30N 51°16' E 004°22'0 0.0
2018-Feb-08 01:28N 51°16' E 004°22'0 0.0
2018-Feb-08 00:58N 51°16' E 004°22'0 0.0
2018-Feb-08 00:28N 51°16' E 004°22'0 0.0
2018-Feb-07 23:58N 51°16' E 004°22'0 0.0
2018-Feb-07 23:28N 51°16' E 004°22'0 0.0
2018-Feb-07 22:58N 51°16' E 004°22'0 0.0
2018-Feb-07 22:28N 51°16' E 004°22'0 0.0
2018-Feb-07 21:58N 51°16' E 004°22'0 0.0
2018-Feb-07 21:28N 51°16' E 004°22'0 0.0
2018-Feb-07 09:28N 51°16' E 004°22'0 0.0
2018-Feb-07 08:58N 51°16' E 004°22'0 0.0
2018-Feb-07 08:28N 51°16' E 004°22'0 0.0
2018-Feb-07 07:58N 51°16' E 004°22'0 0.0
2018-Feb-07 07:19N 51°16' E 004°22'0 0.0
2018-Feb-07 06:58N 51°16' E 004°22'0 0.0
2018-Feb-07 06:28N 51°16' E 004°22'0 0.0
2018-Feb-07 05:58N 51°16' E 004°22'0 0.0
2018-Feb-07 05:28N 51°16' E 004°22'0 0.0
2018-Feb-07 04:58N 51°16' E 004°22'0 0.0
2018-Feb-07 04:28N 51°16' E 004°22'1 1.1
2018-Feb-07 04:00N 51°16' E 004°21'1 0.7
2018-Feb-07 02:30N 51°17' E 004°20'0 0.0
2018-Feb-07 02:00N 51°17' E 004°20'0 1.0
2018-Feb-07 01:30N 51°17' E 004°19'3 6.9
2018-Feb-07 01:00N 51°20' E 004°16'510.3
2018-Feb-07 00:30N 51°24' E 004°11'510.2
2018-Feb-07 00:00N 51°23' E 004°03'4 7.5
2018-Feb-06 23:30N 51°25' E 003°58'510.5
2018-Feb-06 23:00N 51°21' E 003°53'510.2
2018-Feb-06 22:30N 51°22' E 003°45'510.5
2018-Feb-06 22:00N 51°26' E 003°40'4 8.3
2018-Feb-06 21:30N 51°25' E 003°33'5 9.2
2018-Feb-06 21:00N 51°25' E 003°26'611.6
2018-Feb-06 20:30N 51°24' E 003°17'612.8
2018-Feb-06 20:00N 51°24' E 003°07'612.7
2018-Feb-06 19:30N 51°23' E 002°57'713.5
2018-Feb-06 19:00N 51°22' E 002°46'510.0
2018-Feb-06 18:30N 51°26' E 002°42'611.0
2018-Feb-06 17:59N 51°32' E 002°41'1 0.9
2018-Feb-06 17:23N 51°32' E 002°41'0 0.4
2018-Feb-06 16:59N 51°32' E 002°41'0 0.4
2018-Feb-06 16:30N 51°32' E 002°41'0 0.5
2018-Feb-06 16:00N 51°32' E 002°42'0 0.7
2018-Feb-06 15:30N 51°32' E 002°42'  
Track history (hours):
 
Tides and Currents Weather Stations Pressure Air Temp Water Temp Dewpoint Dewpoint Depression Visibility Wind Speed Wind Dir Waves Ship Positions

Chem Venus

Last reported at 2018-Feb-16 15:04 UTC. Time now 2018-Feb-22 13:10 UTC.
Position N 49°04' W 005°53'.

Length 145 m; draft 9.8 m.

Type: Ship (hazmat cat B). MMSI: 636018039.

Date/timePositionNaut miles runAvg speedWind from/ knotsBaromVisibWave heightAir tempDewpointWater temp
2018-Feb-16 15:04N 49°04' W 005°53'810.7
2018-Feb-16 14:19N 49°10' W 005°43'1311.3
2018-Feb-16 13:10N 49°18' W 005°29'7212.1
2018-Feb-16 07:14N 49°48' W 003°48'510.7
2018-Feb-16 06:46N 49°50' W 003°41'310.6
2018-Feb-16 06:30N 49°51' W 003°37'510.7
2018-Feb-16 06:00N 49°53' W 003°29'510.9
2018-Feb-16 05:30N 49°55' W 003°21'611.4
2018-Feb-16 05:00N 49°56' W 003°12'611.8
2018-Feb-16 04:30N 49°58' W 003°03'612.6
2018-Feb-16 04:01N 49°60' W 002°54'713.3
2018-Feb-16 03:30N 50°02' W 002°44'714.2
2018-Feb-16 03:00N 50°04' W 002°34'2415.4
2018-Feb-16 01:27N 50°10' W 001°57'715.3
2018-Feb-16 01:00N 50°12' W 001°47'714.7
2018-Feb-16 00:30N 50°14' W 001°36'713.9
2018-Feb-16 00:00N 50°16' W 001°26'713.2
2018-Feb-15 23:30N 50°18' W 001°16'2011.0
2018-Feb-15 21:39N 50°23' W 000°45'1 9.8
2018-Feb-15 21:30N 50°24' W 000°43'5 9.8
2018-Feb-15 20:58N 50°25' W 000°35'510.0
2018-Feb-15 20:30N 50°26' W 000°28'510.2
2018-Feb-15 20:00N 50°27' W 000°20'510.8
2018-Feb-15 19:30N 50°28' W 000°12'611.6
2018-Feb-15 19:00N 50°30' W 000°03'612.0
2018-Feb-15 18:30N 50°32' E 000°06'612.3
2018-Feb-15 18:00N 50°34' E 000°15'612.9
2018-Feb-15 17:30N 50°35' E 000°25'713.4
2018-Feb-15 17:00N 50°37' E 000°35'713.6
2018-Feb-15 16:30N 50°41' E 000°43'713.5
2018-Feb-15 16:00N 50°46' E 000°51'713.0
2018-Feb-15 15:30N 50°50' E 000°59'612.6
2018-Feb-15 15:00N 50°54' E 001°07'612.2
2018-Feb-15 14:31N 50°58' E 001°15'611.3
2018-Feb-15 14:00N 51°01' E 001°22'510.6
2018-Feb-15 13:30N 51°05' E 001°28'5 9.7
2018-Feb-15 13:00N 51°08' E 001°34'5 9.2
2018-Feb-15 12:30N 51°11' E 001°40'5 9.9
2018-Feb-15 12:00N 51°14' E 001°46'510.2
2018-Feb-15 11:30N 51°18' E 001°50'611.1
2018-Feb-15 11:00N 51°23' E 001°55'510.7
2018-Feb-15 10:30N 51°24' E 002°04'612.3
2018-Feb-15 10:00N 51°22' E 002°12'611.7
2018-Feb-15 09:30N 51°21' E 002°22'612.4
2018-Feb-15 08:59N 51°23' E 002°32'611.5
2018-Feb-15 08:28N 51°22' E 002°41'511.0
2018-Feb-15 08:00N 51°22' E 002°50'713.4
2018-Feb-15 07:30N 51°24' E 003°00'612.8
2018-Feb-15 07:00N 51°24' E 003°10'714.0
2018-Feb-15 06:30N 51°25' E 003°21'714.0
2018-Feb-15 06:00N 51°26' E 003°32'611.7
2018-Feb-15 05:30N 51°26' E 003°42'713.3
2018-Feb-15 05:00N 51°21' E 003°49'713.2
2018-Feb-15 04:31N 51°25' E 003°58'4 8.6
2018-Feb-15 04:00N 51°23' E 004°03'611.4
2018-Feb-15 03:30N 51°24' E 004°12'4 8.5
2018-Feb-15 03:00N 51°21' E 004°17'0 0.2
2018-Feb-15 02:31N 51°21' E 004°17'0 0.0
2018-Feb-15 02:01N 51°21' E 004°17'1 1.4
2018-Feb-15 01:30N 51°20' E 004°18'3 5.8
2018-Feb-15 01:00N 51°18' E 004°20'3 5.0
2018-Feb-15 00:30N 51°15' E 004°21'0 0.6
2018-Feb-15 00:00N 51°15' E 004°22'0 0.0
2018-Feb-14 23:30N 51°15' E 004°22'0 0.0
2018-Feb-14 23:00N 51°15' E 004°22'0 0.0
2018-Feb-14 22:30N 51°15' E 004°22'0 0.0
2018-Feb-14 22:00N 51°15' E 004°22'0 0.0
2018-Feb-14 21:30N 51°15' E 004°22'0 0.0
2018-Feb-14 21:00N 51°15' E 004°22'0 0.0
2018-Feb-14 20:30N 51°15' E 004°22'0 0.0
2018-Feb-14 20:00N 51°15' E 004°22'0 0.0
2018-Feb-14 19:30N 51°15' E 004°22'0 0.0
2018-Feb-14 19:00N 51°15' E 004°22'0 0.0
2018-Feb-14 18:30N 51°15' E 004°22'0 0.0
2018-Feb-14 18:00N 51°15' E 004°22'0 0.0
2018-Feb-14 17:30N 51°15' E 004°22'0 0.0
2018-Feb-14 17:00N 51°15' E 004°22'0 0.0
2018-Feb-14 16:30N 51°15' E 004°22'0 0.0
2018-Feb-14 16:00N 51°15' E 004°22'0 0.0
2018-Feb-14 15:30N 51°15' E 004°22'0 0.0
2018-Feb-14 15:00N 51°15' E 004°22'0 0.0
2018-Feb-14 14:30N 51°15' E 004°22'0 0.0
2018-Feb-14 14:00N 51°15' E 004°22'0 0.0
2018-Feb-14 13:30N 51°15' E 004°22'0 0.0
2018-Feb-14 13:00N 51°15' E 004°22'0 0.0
2018-Feb-14 12:30N 51°15' E 004°22'0 0.0
2018-Feb-14 12:00N 51°15' E 004°22'0 0.0
2018-Feb-14 11:30N 51°15' E 004°22'0 0.0
2018-Feb-14 11:00N 51°15' E 004°22'0 0.0
2018-Feb-14 10:30N 51°15' E 004°22'0 0.0
2018-Feb-14 10:00N 51°15' E 004°22'0 0.0
2018-Feb-14 09:30N 51°15' E 004°22'0 0.0
2018-Feb-14 09:00N 51°15' E 004°22'0 0.0
2018-Feb-14 08:30N 51°15' E 004°22'0 0.0
2018-Feb-14 08:00N 51°15' E 004°22'0 0.0
2018-Feb-14 07:30N 51°15' E 004°22'0 0.0
2018-Feb-14 07:00N 51°15' E 004°22'0 0.0
2018-Feb-14 06:30N 51°15' E 004°22'0 0.0
2018-Feb-14 06:00N 51°15' E 004°22'0 0.0
2018-Feb-14 05:30N 51°15' E 004°22'0 0.0
2018-Feb-14 04:57N 51°15' E 004°22'0 0.0
2018-Feb-14 04:30N 51°15' E 004°22'0 0.0
2018-Feb-14 04:00N 51°15' E 004°22'0 0.0
2018-Feb-14 03:30N 51°15' E 004°22'0 0.0
2018-Feb-14 03:00N 51°15' E 004°22'0 0.0
2018-Feb-14 02:30N 51°15' E 004°22'0 0.0
2018-Feb-14 02:00N 51°15' E 004°22'0 0.0
2018-Feb-14 01:27N 51°15' E 004°22'0 0.0
2018-Feb-14 01:00N 51°15' E 004°22'0 0.0
2018-Feb-14 00:30N 51°15' E 004°22'0 0.0
2018-Feb-14 00:00N 51°15' E 004°22'0 0.0
2018-Feb-13 23:30N 51°15' E 004°22'0 0.0
2018-Feb-13 23:00N 51°15' E 004°22'0 0.0
2018-Feb-13 22:30N 51°15' E 004°22'0 0.0
2018-Feb-13 22:00N 51°15' E 004°22'0 0.0
2018-Feb-13 21:30N 51°15' E 004°22'0 0.0
2018-Feb-13 21:00N 51°15' E 004°22'0 0.0
2018-Feb-13 20:30N 51°15' E 004°22'0 0.0
2018-Feb-13 20:00N 51°15' E 004°22'0 0.0
2018-Feb-13 19:30N 51°15' E 004°22'0 0.0
2018-Feb-13 19:00N 51°15' E 004°22'0 0.0
2018-Feb-13 18:30N 51°15' E 004°22'0 0.0
2018-Feb-13 18:00N 51°15' E 004°22'0 0.0
2018-Feb-13 17:30N 51°15' E 004°22'0 0.0
2018-Feb-13 17:00N 51°15' E 004°22'0 0.0
2018-Feb-13 16:30N 51°15' E 004°22'0 0.0
2018-Feb-13 16:00N 51°15' E 004°22'0 0.0
2018-Feb-13 15:30N 51°15' E 004°22'0 0.0
2018-Feb-13 15:00N 51°15' E 004°22'0 0.0
2018-Feb-13 14:30N 51°15' E 004°22'0 0.0
2018-Feb-13 14:00N 51°15' E 004°22'0 0.0
2018-Feb-13 13:30N 51°15' E 004°22'0 0.0
2018-Feb-13 12:57N 51°15' E 004°22'0 0.0
2018-Feb-13 12:30N 51°15' E 004°22'0 0.0
2018-Feb-13 12:00N 51°15' E 004°22'0 0.0
2018-Feb-13 11:30N 51°15' E 004°22'0 0.0
2018-Feb-13 11:00N 51°15' E 004°22'0 0.0
2018-Feb-13 10:30N 51°15' E 004°22'0 0.0
2018-Feb-13 10:00N 51°15' E 004°22'0 0.0
2018-Feb-13 09:30N 51°15' E 004°22'0 0.0
2018-Feb-13 09:00N 51°15' E 004°22'0 0.0
2018-Feb-13 08:24N 51°15' E 004°22'0 0.0
2018-Feb-13 08:00N 51°15' E 004°22'0 0.0
2018-Feb-13 07:30N 51°15' E 004°22'0 0.0
2018-Feb-13 07:00N 51°15' E 004°22'0 0.0
2018-Feb-13 06:30N 51°15' E 004°22'0 0.0
2018-Feb-13 06:00N 51°15' E 004°22'0 0.0
2018-Feb-13 05:30N 51°15' E 004°22'0 0.1
2018-Feb-13 05:00N 51°15' E 004°22'2 3.6
2018-Feb-13 04:31N 51°17' E 004°20'0 0.0
2018-Feb-13 04:00N 51°17' E 004°20'0 1.0
2018-Feb-13 03:30N 51°17' E 004°19'3 5.1
2018-Feb-13 03:00N 51°15' E 004°21'3 5.5
2018-Feb-13 02:30N 51°12' E 004°20'5 9.1
2018-Feb-13 02:00N 51°07' E 004°18'0 0.9
2018-Feb-13 01:29N 51°07' E 004°18'1 1.8
2018-Feb-13 01:00N 51°06' E 004°19'2 0.1
2018-Feb-12 02:53N 51°05' E 004°21'0 1.0
2018-Feb-12 02:30N 51°06' E 004°20'2 3.1
2018-Feb-12 01:59N 51°06' E 004°18'1 1.4
2018-Feb-12 01:30N 51°07' E 004°18'1 1.4
2018-Feb-12 01:00N 51°08' E 004°19'3 5.8
2018-Feb-12 00:30N 51°10' E 004°20'5 9.0
2018-Feb-12 00:00N 51°14' E 004°24'4 7.9
2018-Feb-11 23:30N 51°17' E 004°19'4 8.9
2018-Feb-11 23:00N 51°21' E 004°16'1 1.3
2018-Feb-11 22:30N 51°21' E 004°17'0 0.2
2018-Feb-11 21:59N 51°21' E 004°17'2 4.1
2018-Feb-11 21:29N 51°19' E 004°19'0 0.0
2018-Feb-11 20:59N 51°19' E 004°19'0 0.0
2018-Feb-11 20:29N 51°19' E 004°19'0 0.0
2018-Feb-11 19:59N 51°19' E 004°19'0 0.0
2018-Feb-11 19:26N 51°19' E 004°19'0 0.0
2018-Feb-11 18:56N 51°19' E 004°19'0 0.0
2018-Feb-11 18:29N 51°19' E 004°19'0 0.0
2018-Feb-11 17:59N 51°19' E 004°19'0 0.0
2018-Feb-11 17:29N 51°19' E 004°19'0 0.0
2018-Feb-11 16:59N 51°19' E 004°19'0 0.0
2018-Feb-11 16:26N 51°19' E 004°19'0 0.0
2018-Feb-11 15:59N 51°19' E 004°19'0 0.0
2018-Feb-11 15:29N 51°19' E 004°19'0 0.0
2018-Feb-11 14:59N 51°19' E 004°19'0 0.0
2018-Feb-11 14:29N 51°19' E 004°19'0 0.0
2018-Feb-11 13:56N 51°19' E 004°19'0 0.0
2018-Feb-11 13:30N 51°19' E 004°19'0 0.0
2018-Feb-11 05:56N 51°19' E 004°18'0 0.0
2018-Feb-11 05:23N 51°19' E 004°18'0 0.0
2018-Feb-11 04:59N 51°19' E 004°18'0 0.0
2018-Feb-11 03:53N 51°19' E 004°18'0 0.0
2018-Feb-10 23:41N 51°19' E 004°18'0 0.0
2018-Feb-10 21:32N 51°19' E 004°18'0 0.0
2018-Feb-10 21:11N 51°19' E 004°18'0 0.0
2018-Feb-10 20:56N 51°19' E 004°18'0 0.0
2018-Feb-10 20:26N 51°19' E 004°18'0 0.0
2018-Feb-10 19:59N 51°19' E 004°18'0 0.0
2018-Feb-10 19:11N 51°19' E 004°18'0 0.0
2018-Feb-10 18:59N 51°19' E 004°18'0 0.0
2018-Feb-10 18:29N 51°19' E 004°18'0 0.4
2018-Feb-10 18:01N 51°19' E 004°19'0 0.0
2018-Feb-10 17:30N 51°19' E 004°19'0 0.0
2018-Feb-10 17:00N 51°19' E 004°19'0 0.0
2018-Feb-10 16:31N 51°19' E 004°19'0 0.0
2018-Feb-10 16:00N 51°19' E 004°19'0 0.0
2018-Feb-10 15:24N 51°19' E 004°19'0 0.0
2018-Feb-10 14:57N 51°19' E 004°19'0 0.0
2018-Feb-10 14:31N 51°19' E 004°19'0 0.0
2018-Feb-10 14:00N 51°19' E 004°19'0 0.0
2018-Feb-10 13:28N 51°19' E 004°19'0 0.0
2018-Feb-10 13:00N 51°19' E 004°19'0 0.0
2018-Feb-10 12:27N 51°19' E 004°19'0 0.0
2018-Feb-10 12:01N 51°19' E 004°19'0 0.0
2018-Feb-10 11:27N 51°19' E 004°19'0 0.0
2018-Feb-10 11:00N 51°19' E 004°19'0 0.0
2018-Feb-10 10:31N 51°19' E 004°19'0 0.0
2018-Feb-10 09:57N 51°19' E 004°19'0 0.0
2018-Feb-10 09:31N 51°19' E 004°19'0 0.0
2018-Feb-10 08:58N 51°19' E 004°19'0 0.0
2018-Feb-10 08:31N 51°19' E 004°19'0 0.0
2018-Feb-10 08:01N 51°19' E 004°19'0 0.0
2018-Feb-10 07:30N 51°19' E 004°19'0 0.0
2018-Feb-10 07:00N 51°19' E 004°19'0 0.0
2018-Feb-10 06:27N 51°19' E 004°19'0 0.0
2018-Feb-10 06:01N 51°19' E 004°19'0 0.0
2018-Feb-10 05:30N 51°19' E 004°19'0 0.0
2018-Feb-10 05:01N 51°19' E 004°19'0 0.0
2018-Feb-10 04:30N 51°19' E 004°19'0 0.0
2018-Feb-10 04:00N 51°19' E 004°19'0 0.0
2018-Feb-10 03:30N 51°19' E 004°19'0 0.0
2018-Feb-10 03:00N 51°19' E 004°19'0 0.0
2018-Feb-10 02:31N 51°19' E 004°19'0 0.0
2018-Feb-10 01:58N 51°19' E 004°19'0 0.0
2018-Feb-10 01:28N 51°19' E 004°19'0 0.0
2018-Feb-10 01:01N 51°19' E 004°19'0 0.0
2018-Feb-10 00:31N 51°19' E 004°19'0 0.0
2018-Feb-10 00:01N 51°19' E 004°19'0 0.0
2018-Feb-09 23:30N 51°19' E 004°19'0 0.0
2018-Feb-09 23:00N 51°19' E 004°19'0 0.0
2018-Feb-09 22:45N 51°19' E 004°19'0 0.0
2018-Feb-09 22:01N 51°19' E 004°19'0 0.0
2018-Feb-09 20:30N 51°19' E 004°19'0 0.0
2018-Feb-09 20:00N 51°19' E 004°19'0 0.0
2018-Feb-09 18:31N 51°19' E 004°19'0 0.0
2018-Feb-09 17:31N 51°19' E 004°19'0 0.0
2018-Feb-09 17:00N 51°19' E 004°19'0 0.0
2018-Feb-09 15:31N 51°19' E 004°19'0 0.0
2018-Feb-09 13:30N 51°19' E 004°19'0 0.0
2018-Feb-09 13:01N 51°19' E 004°19'0 0.0
2018-Feb-09 12:31N 51°19' E 004°19'1 1.4
2018-Feb-09 11:30N 51°18' E 004°20'3 5.5
2018-Feb-09 11:00N 51°15' E 004°22'0 0.0
2018-Feb-08 16:00N 51°15' E 004°22'0 0.9
2018-Feb-08 15:30N 51°16' E 004°22'0 0.0
2018-Feb-08 01:28N 51°16' E 004°22'0 0.0
2018-Feb-08 00:58N 51°16' E 004°22'0 0.0
2018-Feb-08 00:28N 51°16' E 004°22'0 0.0
2018-Feb-07 23:58N 51°16' E 004°22'0 0.0
2018-Feb-07 23:28N 51°16' E 004°22'0 0.0
2018-Feb-07 22:58N 51°16' E 004°22'0 0.0
2018-Feb-07 22:28N 51°16' E 004°22'0 0.0
2018-Feb-07 21:58N 51°16' E 004°22'0 0.0
2018-Feb-07 21:28N 51°16' E 004°22'0 0.0
2018-Feb-07 09:28N 51°16' E 004°22'0 0.0
2018-Feb-07 08:58N 51°16' E 004°22'0 0.0
2018-Feb-07 08:28N 51°16' E 004°22'0 0.0
2018-Feb-07 07:58N 51°16' E 004°22'0 0.0
2018-Feb-07 07:19N 51°16' E 004°22'0 0.0
2018-Feb-07 06:58N 51°16' E 004°22'0 0.0
2018-Feb-07 06:28N 51°16' E 004°22'0 0.0
2018-Feb-07 05:58N 51°16' E 004°22'0 0.0
2018-Feb-07 05:28N 51°16' E 004°22'0 0.0
2018-Feb-07 04:58N 51°16' E 004°22'0 0.0
2018-Feb-07 04:28N 51°16' E 004°22'1 1.1
2018-Feb-07 04:00N 51°16' E 004°21'1 0.7
2018-Feb-07 02:30N 51°17' E 004°20'0 0.0
2018-Feb-07 02:00N 51°17' E 004°20'0 1.0
2018-Feb-07 01:30N 51°17' E 004°19'3 6.9
2018-Feb-07 01:00N 51°20' E 004°16'510.3
2018-Feb-07 00:30N 51°24' E 004°11'510.2
2018-Feb-07 00:00N 51°23' E 004°03'4 7.5
2018-Feb-06 23:30N 51°25' E 003°58'510.5
2018-Feb-06 23:00N 51°21' E 003°53'510.2
2018-Feb-06 22:30N 51°22' E 003°45'510.5
2018-Feb-06 22:00N 51°26' E 003°40'4 8.3
2018-Feb-06 21:30N 51°25' E 003°33'5 9.2
2018-Feb-06 21:00N 51°25' E 003°26'611.6
2018-Feb-06 20:30N 51°24' E 003°17'612.8
2018-Feb-06 20:00N 51°24' E 003°07'612.7
2018-Feb-06 19:30N 51°23' E 002°57'713.5
2018-Feb-06 19:00N 51°22' E 002°46'510.0
2018-Feb-06 18:30N 51°26' E 002°42'611.0
2018-Feb-06 17:59N 51°32' E 002°41'1 0.9
2018-Feb-06 17:23N 51°32' E 002°41'0 0.4
2018-Feb-06 16:59N 51°32' E 002°41'0 0.4
2018-Feb-06 16:30N 51°32' E 002°41'0 0.5
2018-Feb-06 16:00N 51°32' E 002°42'0 0.7
2018-Feb-06 15:30N 51°32' E 002°42'  

Dump ship's entire track history